createdAt,value
2023-02-21T00:01:18.731Z,5.71
2023-02-21T00:02:39.806Z,5.77
2023-02-21T00:04:00.349Z,5.85
2023-02-21T00:05:21.470Z,5.81
2023-02-21T00:06:42.426Z,5.84
2023-02-21T00:08:02.930Z,5.84
2023-02-21T00:09:24.028Z,5.84
2023-02-21T00:10:45.188Z,5.86
2023-02-21T00:12:05.714Z,5.87
2023-02-21T00:13:26.231Z,5.91
2023-02-21T00:14:46.991Z,5.90
2023-02-21T00:16:07.610Z,5.83
2023-02-21T00:17:28.239Z,5.89
2023-02-21T00:18:55.799Z,5.75
2023-02-21T00:20:18.387Z,5.54
2023-02-21T00:21:40.342Z,5.38
2023-02-21T00:23:00.855Z,5.25
2023-02-21T00:24:21.945Z,5.12
2023-02-21T00:25:42.396Z,5.10
2023-02-21T00:27:02.815Z,5.04
2023-02-21T00:28:23.611Z,4.95
2023-02-21T00:29:44.967Z,4.95
2023-02-21T00:31:05.997Z,4.99
2023-02-21T00:32:27.412Z,5.09
2023-02-21T00:33:48.080Z,5.14
2023-02-21T00:35:08.575Z,5.17
2023-02-21T00:36:35.203Z,5.22
2023-02-21T00:37:55.830Z,5.20
2023-02-21T00:39:16.565Z,5.30
2023-02-21T00:40:37.420Z,5.31
2023-02-21T00:41:57.978Z,5.33
2023-02-21T00:43:19.712Z,5.34
2023-02-21T00:44:40.260Z,5.32
2023-02-21T00:46:01.475Z,5.30
2023-02-21T00:47:22.241Z,5.36
2023-02-21T00:48:43.394Z,5.36
2023-02-21T00:50:04.291Z,5.37
2023-02-21T00:51:24.778Z,5.36
2023-02-21T00:52:45.311Z,5.30
2023-02-21T00:54:05.851Z,5.19
2023-02-21T00:55:26.452Z,5.19
2023-02-21T00:56:47.599Z,5.22
2023-02-21T00:58:08.271Z,5.21
2023-02-21T00:59:29.326Z,5.26
2023-02-21T01:00:50.032Z,5.23
2023-02-21T01:02:11.331Z,4.96
2023-02-21T01:03:31.855Z,4.97
2023-02-21T01:04:52.666Z,4.89
2023-02-21T01:06:13.713Z,4.77
2023-02-21T01:07:34.507Z,4.73
2023-02-21T01:08:55.627Z,4.73
2023-02-21T01:10:16.067Z,4.74
2023-02-21T01:11:38.459Z,4.72
2023-02-21T01:12:59.204Z,4.68
2023-02-21T01:14:20.158Z,4.60
2023-02-21T01:15:40.969Z,4.71
2023-02-21T01:17:12.451Z,4.77
2023-02-21T01:18:33.959Z,4.87
2023-02-21T01:19:57.022Z,4.55
2023-02-21T01:21:17.595Z,4.59
2023-02-21T01:22:38.236Z,4.49
2023-02-21T01:23:58.937Z,4.38
2023-02-21T01:25:20.128Z,4.33
2023-02-21T01:26:40.962Z,4.44
2023-02-21T01:28:02.020Z,4.54
2023-02-21T01:29:23.390Z,4.49
2023-02-21T01:30:44.308Z,4.55
2023-02-21T01:32:04.905Z,4.57
2023-02-21T01:33:26.036Z,4.59
2023-02-21T01:34:47.079Z,4.68
2023-02-21T01:36:08.142Z,4.64
2023-02-21T01:37:28.931Z,4.50
2023-02-21T01:38:54.698Z,4.51
2023-02-21T01:40:15.703Z,4.53
2023-02-21T01:41:36.601Z,4.65
2023-02-21T01:42:57.899Z,4.65
2023-02-21T01:44:22.330Z,4.60
2023-02-21T01:45:57.064Z,4.56
2023-02-21T01:47:17.589Z,4.58
2023-02-21T01:48:40.749Z,4.58
2023-02-21T01:50:01.477Z,4.57
2023-02-21T01:51:26.509Z,4.63
2023-02-21T01:52:47.742Z,4.63
2023-02-21T01:54:09.119Z,4.71
2023-02-21T01:55:30.998Z,4.70
2023-02-21T01:56:52.637Z,4.67
2023-02-21T01:58:14.682Z,4.63
2023-02-21T01:59:38.543Z,4.58
2023-02-21T02:02:40.523Z,4.38
2023-02-21T02:04:01.890Z,4.21
2023-02-21T02:05:26.718Z,4.20
2023-02-21T02:06:47.812Z,4.01
2023-02-21T02:08:11.002Z,3.88
2023-02-21T02:09:39.504Z,3.88
2023-02-21T02:11:01.526Z,3.97
2023-02-21T02:12:37.305Z,4.01
2023-02-21T02:14:00.282Z,4.18
2023-02-21T02:15:08.043Z,3.95
2023-02-21T02:16:42.504Z,4.10
2023-02-21T02:18:00.991Z,4.15
2023-02-21T02:19:17.851Z,4.24
2023-02-21T02:20:50.774Z,4.41
2023-02-21T02:21:55.804Z,4.44
2023-02-21T02:22:57.943Z,4.36
2023-02-21T02:24:28.634Z,4.38
2023-02-21T02:25:52.381Z,4.35
2023-02-21T02:27:31.161Z,4.38
2023-02-21T02:29:04.425Z,4.43
2023-02-21T02:30:17.125Z,4.50
2023-02-21T02:31:46.314Z,4.52
2023-02-21T02:32:51.776Z,4.58
2023-02-21T02:34:03.614Z,4.56
2023-02-21T02:35:21.551Z,4.58
2023-02-21T02:36:40.091Z,4.69
2023-02-21T02:37:58.195Z,4.69
2023-02-21T02:39:13.437Z,4.67
2023-02-21T02:40:32.837Z,4.71
2023-02-21T02:41:54.824Z,4.71
2023-02-21T02:43:07.410Z,4.68
2023-02-21T02:44:39.166Z,4.75
2023-02-21T02:45:58.791Z,4.70
2023-02-21T02:47:04.477Z,4.64
2023-02-21T02:48:23.669Z,4.66
2023-02-21T02:49:29.496Z,4.60
2023-02-21T02:50:33.156Z,4.62
2023-02-21T02:51:35.911Z,4.65
2023-02-21T02:52:50.799Z,4.66
2023-02-21T02:53:53.751Z,4.67
2023-02-21T02:55:00.902Z,4.66
2023-02-21T02:56:11.992Z,4.63
2023-02-21T02:57:14.815Z,4.67
2023-02-21T02:58:19.493Z,4.62
2023-02-21T02:59:26.214Z,4.63
2023-02-21T03:00:30.403Z,4.59
2023-02-21T03:01:49.992Z,4.62
2023-02-21T03:03:12.533Z,4.66
2023-02-21T03:04:39.307Z,4.58
2023-02-21T03:05:57.102Z,4.62
2023-02-21T03:07:10.935Z,4.64
2023-02-21T03:08:27.916Z,4.68
2023-02-21T03:10:11.131Z,4.63
2023-02-21T03:11:20.291Z,4.59
2023-02-21T03:12:30.620Z,4.53
2023-02-21T03:13:40.546Z,4.57
2023-02-21T03:15:01.197Z,4.57
2023-02-21T03:16:27.189Z,4.63
2023-02-21T03:17:34.183Z,4.49
2023-02-21T03:18:41.372Z,4.52
2023-02-21T03:19:47.200Z,4.47
2023-02-21T03:20:55.979Z,4.33
2023-02-21T03:22:02.203Z,4.37
2023-02-21T03:23:05.548Z,4.43
2023-02-21T03:24:11.257Z,4.48
2023-02-21T03:25:16.160Z,4.50
2023-02-21T03:26:22.075Z,4.60
2023-02-21T03:27:32.823Z,4.58
2023-02-21T03:28:43.831Z,4.58
2023-02-21T03:29:54.305Z,4.52
2023-02-21T03:30:59.623Z,4.53
2023-02-21T03:32:10.738Z,4.48
2023-02-21T03:33:13.114Z,4.55
2023-02-21T03:34:15.756Z,4.60
2023-02-21T03:35:19.730Z,4.61
2023-02-21T03:36:23.693Z,4.62
2023-02-21T03:37:35.870Z,4.65
2023-02-21T03:38:38.138Z,4.62
2023-02-21T03:39:40.578Z,4.65
2023-02-21T03:40:42.905Z,4.72
2023-02-21T03:41:46.151Z,4.80
2023-02-21T03:42:48.662Z,4.78
2023-02-21T03:43:53.560Z,4.81
2023-02-21T03:44:55.808Z,4.74
2023-02-21T03:45:58.755Z,4.66
2023-02-21T03:47:03.538Z,4.71
2023-02-21T03:48:06.013Z,4.73
2023-02-21T03:49:10.228Z,4.72
2023-02-21T03:50:12.614Z,4.57
2023-02-21T03:51:18.203Z,4.41
2023-02-21T03:52:21.289Z,4.33
2023-02-21T03:53:23.593Z,4.36
2023-02-21T03:54:27.084Z,4.37
2023-02-21T03:55:31.950Z,4.19
2023-02-21T03:56:41.827Z,4.12
2023-02-21T03:58:00.171Z,4.04
2023-02-21T03:59:03.563Z,4.03
2023-02-21T04:00:06.428Z,3.89
2023-02-21T04:01:17.631Z,3.79
2023-02-21T04:02:20.373Z,3.82
2023-02-21T04:03:23.775Z,3.72
2023-02-21T04:04:30.671Z,3.58
2023-02-21T04:05:41.560Z,3.61
2023-02-21T04:06:45.147Z,3.50
2023-02-21T04:07:47.929Z,3.43
2023-02-21T04:08:52.239Z,3.29
2023-02-21T04:09:55.719Z,3.36
2023-02-21T04:11:11.305Z,3.39
2023-02-21T04:12:14.790Z,3.34
2023-02-21T04:13:17.059Z,3.22
2023-02-21T04:14:21.845Z,3.10
2023-02-21T04:15:24.795Z,3.00
2023-02-21T04:16:27.381Z,3.00
2023-02-21T04:17:31.013Z,3.19
2023-02-21T04:18:36.697Z,3.28
2023-02-21T04:19:40.552Z,3.34
2023-02-21T04:20:42.837Z,3.45
2023-02-21T04:21:50.305Z,3.52
2023-02-21T04:23:02.738Z,3.60
2023-02-21T04:24:06.162Z,3.72
2023-02-21T04:25:09.433Z,3.68
2023-02-21T04:26:17.509Z,3.60
2023-02-21T04:27:27.301Z,3.52
2023-02-21T04:28:31.826Z,3.53
2023-02-21T04:29:34.654Z,3.46
2023-02-21T04:30:37.178Z,3.35
2023-02-21T04:31:40.463Z,3.30
2023-02-21T04:32:47.152Z,3.24
2023-02-21T04:33:54.922Z,3.14
2023-02-21T04:35:05.805Z,3.15
2023-02-21T04:36:09.478Z,3.18
2023-02-21T04:37:16.045Z,3.27
2023-02-21T04:38:19.396Z,3.24
2023-02-21T04:39:21.694Z,3.24
2023-02-21T04:40:25.051Z,3.23
2023-02-21T04:41:27.224Z,3.20
2023-02-21T04:42:29.469Z,3.01
2023-02-21T04:43:31.872Z,2.86
2023-02-21T04:44:34.158Z,2.74
2023-02-21T04:45:36.428Z,2.74
2023-02-21T04:46:38.801Z,2.62
2023-02-21T04:47:40.996Z,2.72
2023-02-21T04:48:47.970Z,2.80
2023-02-21T04:49:52.432Z,2.91
2023-02-21T04:50:57.311Z,2.93
2023-02-21T04:52:01.800Z,2.95
2023-02-21T04:53:04.047Z,3.01
2023-02-21T04:54:07.748Z,3.01
2023-02-21T04:55:10.059Z,2.97
2023-02-21T04:56:12.615Z,2.94
2023-02-21T04:57:16.569Z,2.94
2023-02-21T04:58:18.831Z,2.79
2023-02-21T04:59:21.093Z,2.65
2023-02-21T05:00:23.718Z,2.53
2023-02-21T05:01:31.247Z,2.51
2023-02-21T05:02:34.225Z,2.39
2023-02-21T05:03:36.408Z,2.38
2023-02-21T05:04:38.931Z,2.43
2023-02-21T05:05:41.165Z,2.38
2023-02-21T05:06:43.416Z,2.37
2023-02-21T05:07:45.594Z,2.40
2023-02-21T05:08:47.813Z,2.58
2023-02-21T05:09:50.099Z,2.67
2023-02-21T05:10:54.899Z,2.79
2023-02-21T05:11:57.245Z,2.87
2023-02-21T05:12:59.550Z,2.94
2023-02-21T05:14:01.903Z,2.99
2023-02-21T05:15:04.778Z,3.06
2023-02-21T05:16:07.230Z,3.12
2023-02-21T05:17:09.679Z,3.19
2023-02-21T05:18:11.893Z,3.24
2023-02-21T05:19:27.134Z,3.29
2023-02-21T05:20:29.403Z,3.27
2023-02-21T05:21:35.414Z,3.14
2023-02-21T05:22:41.834Z,3.02
2023-02-21T05:23:55.844Z,2.90
2023-02-21T05:24:58.355Z,2.66
2023-02-21T05:26:05.506Z,2.68
2023-02-21T05:27:11.285Z,2.74
2023-02-21T05:28:13.512Z,2.79
2023-02-21T05:29:15.715Z,2.89
2023-02-21T05:30:20.558Z,2.97
2023-02-21T05:31:22.950Z,2.95
2023-02-21T05:32:29.468Z,2.94
2023-02-21T05:33:32.661Z,2.92
2023-02-21T05:34:34.938Z,2.67
2023-02-21T05:35:37.162Z,2.66
2023-02-21T05:36:41.098Z,2.53
2023-02-21T05:37:43.485Z,2.39
2023-02-21T05:38:51.146Z,2.31
2023-02-21T05:39:53.385Z,2.31
2023-02-21T05:40:55.648Z,2.26
2023-02-21T05:41:57.802Z,2.26
2023-02-21T05:43:00.049Z,2.40
2023-02-21T05:44:02.948Z,2.42
2023-02-21T05:45:06.792Z,2.48
2023-02-21T05:46:35.681Z,2.54
2023-02-21T05:47:37.968Z,2.40
2023-02-21T05:48:40.172Z,2.45
2023-02-21T05:49:43.185Z,2.44
2023-02-21T05:50:45.494Z,2.31
2023-02-21T05:51:47.805Z,2.26
2023-02-21T05:52:49.979Z,2.26
2023-02-21T05:53:52.352Z,2.17
2023-02-21T05:54:54.559Z,2.19
2023-02-21T05:55:57.576Z,2.08
2023-02-21T05:56:59.880Z,2.16
2023-02-21T05:58:02.129Z,2.29
2023-02-21T05:59:04.434Z,2.21
2023-02-21T06:00:07.419Z,2.35
2023-02-21T06:01:14.734Z,2.51
2023-02-21T06:02:17.457Z,2.63
2023-02-21T06:03:19.720Z,2.68
2023-02-21T06:04:21.958Z,2.73
2023-02-21T06:05:24.530Z,2.76
2023-02-21T06:06:26.926Z,2.86
2023-02-21T06:07:29.202Z,2.85
2023-02-21T06:08:31.436Z,2.86
2023-02-21T06:09:34.732Z,2.90
2023-02-21T06:10:36.882Z,2.89
2023-02-21T06:11:40.483Z,2.92
2023-02-21T06:12:42.769Z,2.97
2023-02-21T06:13:44.963Z,2.98
2023-02-21T06:14:47.181Z,3.04
2023-02-21T06:15:49.591Z,3.09
2023-02-21T06:16:52.063Z,3.11
2023-02-21T06:17:54.337Z,3.14
2023-02-21T06:18:57.085Z,3.21
2023-02-21T06:19:59.577Z,3.24
2023-02-21T06:21:01.837Z,3.27
2023-02-21T06:22:04.327Z,3.35
2023-02-21T06:23:06.797Z,3.47
2023-02-21T06:24:10.128Z,3.49
2023-02-21T06:25:12.467Z,3.51
2023-02-21T06:26:15.372Z,3.56
2023-02-21T06:27:17.604Z,3.56
2023-02-21T06:28:19.873Z,3.53
2023-02-21T06:29:22.172Z,3.51
2023-02-21T06:30:24.510Z,3.57
2023-02-21T06:31:27.177Z,3.60
2023-02-21T06:32:29.420Z,3.61
2023-02-21T06:33:32.137Z,3.53
2023-02-21T06:34:34.366Z,3.60
2023-02-21T06:35:36.626Z,3.59
2023-02-21T06:36:39.639Z,3.58
2023-02-21T06:37:42.629Z,3.68
2023-02-21T06:38:51.291Z,3.64
2023-02-21T06:39:53.549Z,3.54
2023-02-21T06:40:55.862Z,3.32
2023-02-21T06:41:58.267Z,3.18
2023-02-21T06:43:00.547Z,3.15
2023-02-21T06:44:02.756Z,3.13
2023-02-21T06:45:05.812Z,3.08
2023-02-21T06:46:08.135Z,3.02
2023-02-21T06:47:10.290Z,3.07
2023-02-21T06:48:18.293Z,2.96
2023-02-21T06:49:21.353Z,3.01
2023-02-21T06:50:23.614Z,2.92
2023-02-21T06:51:29.489Z,2.88
2023-02-21T06:52:32.120Z,2.94
2023-02-21T06:53:34.311Z,2.96
2023-02-21T06:54:36.932Z,3.05
2023-02-21T06:55:39.315Z,3.13
2023-02-21T06:56:41.552Z,3.15
2023-02-21T06:57:43.849Z,2.99
2023-02-21T06:58:46.083Z,2.96
2023-02-21T06:59:48.278Z,3.10
2023-02-21T07:00:50.512Z,3.22
2023-02-21T07:01:52.886Z,3.33
2023-02-21T07:02:55.048Z,3.52
2023-02-21T07:03:58.304Z,3.64
2023-02-21T07:05:00.646Z,3.50
2023-02-21T07:06:03.016Z,3.36
2023-02-21T07:07:05.329Z,3.22
2023-02-21T07:08:07.597Z,3.36
2023-02-21T07:09:09.874Z,3.62
2023-02-21T07:10:13.112Z,3.77
2023-02-21T07:11:17.018Z,3.58
2023-02-21T07:12:19.491Z,3.58
2023-02-21T07:13:22.629Z,3.51
2023-02-21T07:14:25.002Z,3.45
2023-02-21T07:15:27.386Z,3.50
2023-02-21T07:16:29.613Z,3.45
2023-02-21T07:17:31.812Z,3.64
2023-02-21T07:18:34.314Z,4.12
2023-02-21T07:19:36.503Z,4.48
2023-02-21T07:20:41.802Z,4.67
2023-02-21T07:21:44.400Z,4.81
2023-02-21T07:22:46.692Z,5.14
2023-02-21T07:23:49.343Z,5.23
2023-02-21T07:24:55.988Z,5.27
2023-02-21T07:25:58.280Z,5.37
2023-02-21T07:27:00.652Z,5.45
2023-02-21T07:28:04.249Z,5.45
2023-02-21T07:29:07.092Z,5.58
2023-02-21T07:30:11.774Z,5.73
2023-02-21T07:31:15.215Z,5.83
2023-02-21T07:32:18.357Z,5.75
2023-02-21T07:33:20.604Z,5.73
2023-02-21T07:34:23.006Z,5.88
2023-02-21T07:35:25.308Z,5.99
2023-02-21T07:36:27.520Z,5.89
2023-02-21T07:37:29.738Z,5.99
2023-02-21T07:38:32.198Z,6.06
2023-02-21T07:39:34.453Z,6.15
2023-02-21T07:40:36.663Z,6.28
2023-02-21T07:41:38.835Z,6.37
2023-02-21T07:42:45.089Z,6.52
2023-02-21T07:43:47.363Z,6.54
2023-02-21T07:44:49.629Z,6.42
2023-02-21T07:45:51.819Z,6.49
2023-02-21T07:46:56.577Z,6.66
2023-02-21T07:47:58.750Z,6.62
2023-02-21T07:49:01.608Z,6.80
2023-02-21T07:50:04.530Z,6.75
2023-02-21T07:51:08.454Z,6.92
2023-02-21T07:52:10.686Z,6.95
2023-02-21T07:53:13.407Z,6.98
2023-02-21T07:54:16.713Z,7.26
2023-02-21T07:55:18.962Z,7.54
2023-02-21T07:56:21.495Z,7.93
2023-02-21T07:57:23.825Z,8.28
2023-02-21T07:58:26.140Z,8.45
2023-02-21T07:59:28.913Z,8.42
2023-02-21T08:00:31.575Z,8.79
2023-02-21T08:01:33.770Z,8.86
2023-02-21T08:02:35.986Z,9.21
2023-02-21T08:03:38.158Z,9.04
2023-02-21T08:04:41.312Z,9.48
2023-02-21T08:05:43.805Z,9.77
2023-02-21T08:06:46.015Z,9.68
2023-02-21T08:07:48.437Z,9.83
2023-02-21T08:08:50.629Z,9.94
2023-02-21T08:09:52.996Z,10.28
2023-02-21T08:10:55.231Z,10.50
2023-02-21T08:11:57.516Z,10.61
2023-02-21T08:12:59.676Z,10.69
2023-02-21T08:14:01.884Z,10.31
2023-02-21T08:15:05.953Z,9.71
2023-02-21T08:16:08.244Z,9.65
2023-02-21T08:17:10.494Z,9.70
2023-02-21T08:18:23.943Z,10.32
2023-02-21T08:19:26.152Z,10.39
2023-02-21T08:20:28.451Z,10.97
2023-02-21T08:21:30.707Z,11.34
2023-02-21T08:22:33.002Z,11.26
2023-02-21T08:23:35.234Z,11.00
2023-02-21T08:24:37.533Z,10.73
2023-02-21T08:25:39.731Z,10.67
2023-02-21T08:26:45.238Z,10.53
2023-02-21T08:27:53.370Z,10.32
2023-02-21T08:28:55.702Z,10.94
2023-02-21T08:29:57.949Z,11.58
2023-02-21T08:31:00.214Z,11.67
2023-02-21T08:32:02.505Z,12.25
2023-02-21T08:33:04.764Z,12.01
2023-02-21T08:34:08.090Z,12.28
2023-02-21T08:35:13.673Z,12.62
2023-02-21T08:36:15.926Z,12.63
2023-02-21T08:37:19.918Z,12.21
2023-02-21T08:38:22.179Z,12.72
2023-02-21T08:39:24.504Z,12.71
2023-02-21T08:40:26.739Z,12.43
2023-02-21T08:41:54.925Z,12.55
2023-02-21T08:42:59.309Z,12.74
2023-02-21T08:44:01.533Z,12.62
2023-02-21T08:45:03.971Z,12.83
2023-02-21T08:46:06.226Z,12.52
2023-02-21T08:47:08.452Z,12.90
2023-02-21T08:48:11.005Z,13.25
2023-02-21T08:49:13.456Z,13.69
2023-02-21T08:50:16.130Z,14.00
2023-02-21T08:51:18.476Z,13.37
2023-02-21T08:52:23.726Z,13.01
2023-02-21T08:53:26.024Z,13.11
2023-02-21T08:54:28.240Z,12.99
2023-02-21T08:55:30.465Z,13.52
2023-02-21T08:56:32.924Z,13.18
2023-02-21T08:57:35.261Z,13.49
2023-02-21T08:58:38.180Z,13.02
2023-02-21T08:59:42.681Z,13.19
2023-02-21T09:00:44.974Z,13.41
2023-02-21T09:01:47.218Z,13.60
2023-02-21T09:02:50.935Z,13.32
2023-02-21T09:03:53.114Z,13.47
2023-02-21T09:04:55.411Z,13.61
2023-02-21T09:05:57.663Z,13.94
2023-02-21T09:06:59.874Z,13.89
2023-02-21T09:08:02.314Z,13.24
2023-02-21T09:09:04.617Z,13.56
2023-02-21T09:10:10.077Z,13.83
2023-02-21T09:11:12.492Z,14.05
2023-02-21T09:12:15.034Z,13.72
2023-02-21T09:13:17.503Z,14.13
2023-02-21T09:14:19.874Z,13.33
2023-02-21T09:15:22.071Z,13.05
2023-02-21T09:16:24.339Z,13.38
2023-02-21T09:17:26.667Z,13.65
2023-02-21T09:18:30.743Z,13.76
2023-02-21T09:19:33.700Z,14.33
2023-02-21T09:20:37.624Z,14.35
2023-02-21T09:21:45.953Z,14.44
2023-02-21T09:22:48.242Z,14.40
2023-02-21T09:23:54.014Z,13.47
2023-02-21T09:24:56.972Z,13.40
2023-02-21T09:25:59.225Z,13.34
2023-02-21T09:27:04.072Z,13.56
2023-02-21T09:28:06.285Z,13.24
2023-02-21T09:29:08.577Z,13.49
2023-02-21T09:30:18.646Z,13.86
2023-02-21T09:31:21.189Z,13.88
2023-02-21T09:32:23.490Z,14.23
2023-02-21T09:33:25.764Z,14.04
2023-02-21T09:34:29.000Z,14.37
2023-02-21T09:35:31.207Z,13.65
2023-02-21T09:36:36.141Z,13.47
2023-02-21T09:37:39.462Z,13.95
2023-02-21T09:38:41.984Z,14.18
2023-02-21T09:39:44.146Z,14.10
2023-02-21T09:40:51.526Z,14.24
2023-02-21T09:41:57.268Z,14.39
2023-02-21T09:43:01.620Z,14.54
2023-02-21T09:44:06.848Z,14.23
2023-02-21T09:45:17.130Z,14.24
2023-02-21T09:46:36.675Z,14.18
2023-02-21T09:47:40.313Z,14.18
2023-02-21T09:48:44.224Z,14.48
2023-02-21T09:49:48.379Z,14.80
2023-02-21T09:50:59.233Z,13.95
2023-02-21T09:52:02.228Z,14.09
2023-02-21T09:53:04.672Z,14.80
2023-02-21T09:54:13.346Z,14.87
2023-02-21T09:55:30.666Z,14.60
2023-02-21T09:56:39.741Z,14.07
2023-02-21T09:57:42.069Z,14.58
2023-02-21T09:58:44.896Z,14.31
2023-02-21T09:59:49.168Z,14.28
2023-02-21T10:00:51.494Z,13.94
2023-02-21T10:02:03.874Z,14.00
2023-02-21T10:03:21.246Z,14.33
2023-02-21T10:04:59.899Z,14.56
2023-02-21T10:06:47.500Z,14.35
2023-02-21T10:08:21.149Z,14.60
2023-02-21T10:09:27.260Z,14.49
2023-02-21T10:10:55.557Z,14.52
2023-02-21T10:12:28.028Z,14.42
2023-02-21T10:13:48.628Z,14.93
2023-02-21T10:15:11.580Z,14.48
2023-02-21T10:16:24.192Z,14.35
2023-02-21T10:17:38.232Z,14.65
2023-02-21T10:18:59.970Z,14.44
2023-02-21T10:20:39.800Z,14.51
2023-02-21T10:21:48.323Z,15.25
2023-02-21T10:22:53.226Z,15.26
2023-02-21T10:23:57.952Z,15.43
2023-02-21T10:25:02.754Z,14.98
2023-02-21T10:26:09.741Z,14.33
2023-02-21T10:27:24.375Z,14.51
2023-02-21T10:28:26.911Z,14.44
2023-02-21T10:29:39.208Z,14.54
2023-02-21T10:30:43.059Z,14.64
2023-02-21T10:31:47.086Z,14.72
2023-02-21T10:32:49.377Z,14.83
2023-02-21T10:33:51.567Z,15.26
2023-02-21T10:34:55.158Z,14.64
2023-02-21T10:35:57.486Z,14.26
2023-02-21T10:37:10.848Z,14.43
2023-02-21T10:38:18.765Z,14.91
2023-02-21T10:39:31.026Z,15.21
2023-02-21T10:40:38.074Z,15.36
2023-02-21T10:41:41.417Z,15.10
2023-02-21T10:42:49.468Z,14.45
2023-02-21T10:43:57.918Z,13.82
2023-02-21T10:45:00.701Z,14.32
2023-02-21T10:46:13.422Z,14.83
2023-02-21T10:47:24.296Z,14.93
2023-02-21T10:48:32.646Z,15.27
2023-02-21T10:49:43.924Z,15.66
2023-02-21T10:50:52.546Z,15.84
2023-02-21T10:52:13.213Z,15.85
2023-02-21T10:53:27.953Z,15.33
2023-02-21T10:54:30.397Z,15.39
2023-02-21T10:55:33.696Z,15.20
2023-02-21T10:56:38.874Z,15.30
2023-02-21T10:57:44.896Z,14.83
2023-02-21T10:58:52.898Z,15.07
2023-02-21T10:59:55.888Z,15.50
2023-02-21T11:01:12.555Z,15.51
2023-02-21T11:02:35.695Z,15.61
2023-02-21T11:03:44.095Z,15.80
2023-02-21T11:04:46.441Z,15.97
2023-02-21T11:05:50.758Z,15.58
2023-02-21T11:06:55.562Z,15.48
2023-02-21T11:08:06.639Z,14.76
2023-02-21T11:09:24.084Z,15.03
2023-02-21T11:10:43.751Z,15.17
2023-02-21T11:11:45.967Z,15.19
2023-02-21T11:13:02.120Z,15.20
2023-02-21T11:14:13.849Z,14.92
2023-02-21T11:15:18.609Z,14.88
2023-02-21T11:16:24.644Z,14.82
2023-02-21T11:17:28.446Z,14.48
2023-02-21T11:18:30.677Z,14.89
2023-02-21T11:19:57.120Z,15.19
2023-02-21T11:21:19.375Z,15.57
2023-02-21T11:22:46.341Z,15.68
2023-02-21T11:24:07.729Z,15.65
2023-02-21T11:25:25.281Z,15.71
2023-02-21T11:26:30.286Z,15.43
2023-02-21T11:27:36.102Z,15.64
2023-02-21T11:28:43.539Z,15.26
2023-02-21T11:29:49.778Z,15.40
2023-02-21T11:31:17.557Z,15.52
2023-02-21T11:32:26.099Z,15.34
2023-02-21T11:33:29.793Z,15.67
2023-02-21T11:34:32.051Z,15.80
2023-02-21T11:35:39.573Z,15.90
2023-02-21T11:36:45.070Z,15.86
2023-02-21T11:37:50.808Z,15.68
2023-02-21T11:39:04.389Z,15.44
2023-02-21T11:40:26.861Z,15.51
2023-02-21T11:41:31.000Z,15.78
2023-02-21T11:42:34.299Z,16.03
2023-02-21T11:43:48.002Z,15.89
2023-02-21T11:45:04.937Z,15.07
2023-02-21T11:46:32.258Z,15.36
2023-02-21T11:47:51.600Z,15.55
2023-02-21T11:49:14.911Z,15.47
2023-02-21T11:50:32.529Z,15.40
2023-02-21T11:51:46.218Z,15.55
2023-02-21T11:52:55.371Z,15.74
2023-02-21T11:53:57.671Z,15.92
2023-02-21T11:55:00.015Z,16.09
2023-02-21T11:56:26.791Z,16.18
2023-02-21T11:57:54.483Z,16.37
2023-02-21T11:59:10.202Z,16.28
2023-02-21T12:00:29.051Z,16.26
2023-02-21T12:01:59.859Z,16.43
2023-02-21T12:03:21.176Z,16.39
2023-02-21T12:04:33.047Z,16.30
2023-02-21T12:05:45.912Z,16.24
2023-02-21T12:07:20.805Z,16.31
2023-02-21T12:08:40.538Z,16.31
2023-02-21T12:09:47.279Z,16.14
2023-02-21T12:11:08.234Z,15.98
2023-02-21T12:12:25.767Z,16.21
2023-02-21T12:13:58.970Z,15.91
2023-02-21T12:15:17.156Z,16.03
2023-02-21T12:16:27.985Z,15.79
2023-02-21T12:17:49.742Z,15.92
2023-02-21T12:19:03.656Z,16.03
2023-02-21T12:20:29.113Z,16.08
2023-02-21T12:21:50.736Z,16.17
2023-02-21T12:23:14.043Z,16.32
2023-02-21T12:24:46.562Z,16.23
2023-02-21T12:26:12.103Z,16.32
2023-02-21T12:27:30.905Z,16.32
2023-02-21T12:28:35.775Z,16.17
2023-02-21T12:30:05.877Z,16.11
2023-02-21T12:31:29.906Z,15.44
2023-02-21T12:32:50.810Z,15.26
2023-02-21T12:34:18.496Z,15.43
2023-02-21T12:35:37.728Z,15.66
2023-02-21T12:36:47.931Z,15.81
2023-02-21T12:38:13.761Z,15.92
2023-02-21T12:39:45.952Z,15.95
2023-02-21T12:41:19.093Z,16.05
2023-02-21T12:42:31.597Z,16.01
2023-02-21T12:43:52.285Z,15.92
2023-02-21T12:45:24.882Z,16.01
2023-02-21T12:46:31.173Z,16.10
2023-02-21T12:47:48.789Z,16.10
2023-02-21T12:49:16.543Z,16.02
2023-02-21T12:50:24.222Z,15.70
2023-02-21T12:51:32.366Z,15.62
2023-02-21T12:52:49.676Z,15.71
2023-02-21T12:54:01.311Z,15.91
2023-02-21T12:55:12.233Z,16.06
2023-02-21T12:56:29.652Z,16.30
2023-02-21T12:57:54.227Z,16.17
2023-02-21T12:59:17.408Z,16.22
2023-02-21T13:00:26.702Z,16.33
2023-02-21T13:01:34.175Z,16.33
2023-02-21T13:03:25.289Z,16.24
2023-02-21T13:04:57.150Z,16.22
2023-02-21T13:06:23.285Z,16.17
2023-02-21T13:07:36.474Z,15.81
2023-02-21T13:09:02.171Z,16.02
2023-02-21T13:10:19.152Z,16.14
2023-02-21T13:11:31.802Z,16.19
2023-02-21T13:13:07.524Z,16.42
2023-02-21T13:14:18.247Z,16.05
2023-02-21T13:15:23.090Z,15.60
2023-02-21T13:16:25.947Z,15.73
2023-02-21T13:17:28.579Z,15.78
2023-02-21T13:18:37.361Z,15.77
2023-02-21T13:19:49.671Z,15.90
2023-02-21T13:21:32.303Z,15.85
2023-02-21T13:23:12.143Z,15.51
2023-02-21T13:24:58.014Z,15.85
2023-02-21T13:26:26.933Z,16.03
2023-02-21T13:27:47.328Z,16.17
2023-02-21T13:28:54.517Z,16.02
2023-02-21T13:30:25.843Z,15.66
2023-02-21T13:31:39.137Z,15.83
2023-02-21T13:32:51.895Z,15.81
2023-02-21T13:33:59.230Z,15.98
2023-02-21T13:35:05.382Z,15.77
2023-02-21T13:36:42.086Z,15.77
2023-02-21T13:37:46.565Z,15.87
2023-02-21T13:39:09.860Z,15.95
2023-02-21T13:40:44.101Z,16.12
2023-02-21T13:41:56.411Z,15.74
2023-02-21T13:43:11.313Z,15.39
2023-02-21T13:44:29.821Z,15.37
2023-02-21T13:45:32.462Z,15.61
2023-02-21T13:46:34.588Z,15.88
2023-02-21T13:48:00.024Z,15.77
2023-02-21T13:49:41.355Z,15.85
2023-02-21T13:50:47.778Z,16.13
2023-02-21T13:51:53.098Z,16.27
2023-02-21T13:53:20.101Z,16.37
2023-02-21T13:54:24.312Z,16.39
2023-02-21T13:55:27.946Z,16.36
2023-02-21T13:56:44.313Z,16.29
2023-02-21T13:57:56.605Z,16.23
2023-02-21T13:59:33.088Z,16.36
2023-02-21T14:00:35.351Z,16.47
2023-02-21T14:01:37.650Z,16.30
2023-02-21T14:02:55.702Z,16.37
2023-02-21T14:03:58.095Z,16.46
2023-02-21T14:05:04.017Z,16.51
2023-02-21T14:06:08.891Z,16.50
2023-02-21T14:07:11.363Z,16.58
2023-02-21T14:08:22.267Z,16.60
2023-02-21T14:09:25.838Z,16.52
2023-02-21T14:10:45.888Z,16.60
2023-02-21T14:11:50.511Z,16.72
2023-02-21T14:13:00.965Z,16.68
2023-02-21T14:14:25.764Z,16.45
2023-02-21T14:15:40.674Z,15.98
2023-02-21T14:16:51.705Z,16.08
2023-02-21T14:17:54.134Z,16.31
2023-02-21T14:18:58.787Z,16.51
2023-02-21T14:20:01.666Z,16.56
2023-02-21T14:21:17.329Z,16.69
2023-02-21T14:22:29.493Z,16.77
2023-02-21T14:23:42.602Z,16.65
2023-02-21T14:24:48.837Z,16.68
2023-02-21T14:25:58.402Z,16.61
2023-02-21T14:27:24.424Z,16.67
2023-02-21T14:29:13.016Z,16.73
2023-02-21T14:30:24.372Z,16.87
2023-02-21T14:31:53.076Z,16.89
2023-02-21T14:33:02.186Z,16.85
2023-02-21T14:34:04.768Z,16.69
2023-02-21T14:35:32.357Z,16.84
2023-02-21T14:36:36.676Z,16.91
2023-02-21T14:37:45.533Z,17.02
2023-02-21T14:38:53.115Z,17.10
2023-02-21T14:40:00.188Z,17.10
2023-02-21T14:41:26.035Z,17.08
2023-02-21T14:42:54.314Z,17.15
2023-02-21T14:44:26.937Z,17.20
2023-02-21T14:46:07.603Z,17.04
2023-02-21T14:47:52.747Z,16.99
2023-02-21T14:49:38.659Z,17.01
2023-02-21T14:50:45.951Z,17.09
2023-02-21T14:52:21.164Z,17.05
2023-02-21T14:53:41.798Z,16.85
2023-02-21T14:55:02.932Z,16.85
2023-02-21T14:56:35.144Z,16.78
2023-02-21T14:57:47.764Z,16.57
2023-02-21T14:58:55.591Z,16.68
2023-02-21T15:00:38.399Z,16.54
2023-02-21T15:01:58.368Z,16.18
2023-02-21T15:03:08.291Z,16.27
2023-02-21T15:04:34.110Z,16.52
2023-02-21T15:05:44.974Z,16.42
2023-02-21T15:07:00.836Z,16.50
2023-02-21T15:08:10.255Z,16.53
2023-02-21T15:09:17.746Z,16.68
2023-02-21T15:10:31.151Z,16.85
2023-02-21T15:11:39.973Z,16.76
2023-02-21T15:12:47.196Z,16.76
2023-02-21T15:14:14.264Z,16.71
2023-02-21T15:15:29.766Z,16.70
2023-02-21T15:16:32.234Z,16.86
2023-02-21T15:17:34.979Z,16.87
2023-02-21T15:18:39.733Z,16.84
2023-02-21T15:19:41.969Z,16.90
2023-02-21T15:20:44.722Z,16.90
2023-02-21T15:21:46.919Z,16.89
2023-02-21T15:22:56.654Z,16.96
2023-02-21T15:24:16.165Z,17.01
2023-02-21T15:25:20.944Z,16.92
2023-02-21T15:26:27.333Z,16.80
2023-02-21T15:27:29.651Z,16.43
2023-02-21T15:28:33.288Z,16.43